sensor_id;sensor_type;location;lat;lon;timestamp;P1;durP1;ratioP1;P2;durP2;ratioP2
19969;SDS011;10146;47.754;9.566;2022-11-23T00:00:45;2.35;;;1.15;;
19969;SDS011;10146;47.754;9.566;2022-11-23T00:03:14;4.03;;;1.25;;
19969;SDS011;10146;47.754;9.566;2022-11-23T00:05:40;3.97;;;1.20;;
19969;SDS011;10146;47.754;9.566;2022-11-23T00:08:05;3.08;;;1.30;;
19969;SDS011;10146;47.754;9.566;2022-11-23T00:10:31;4.90;;;1.50;;
19969;SDS011;10146;47.754;9.566;2022-11-23T00:12:56;2.50;;;1.08;;
19969;SDS011;10146;47.754;9.566;2022-11-23T00:15:22;3.92;;;1.05;;
19969;SDS011;10146;47.754;9.566;2022-11-23T00:17:48;3.05;;;1.17;;
19969;SDS011;10146;47.754;9.566;2022-11-23T00:20:13;3.40;;;1.25;;
19969;SDS011;10146;47.754;9.566;2022-11-23T00:22:39;2.15;;;1.20;;
19969;SDS011;10146;47.754;9.566;2022-11-23T00:25:04;2.75;;;1.35;;
19969;SDS011;10146;47.754;9.566;2022-11-23T00:27:30;4.22;;;1.33;;
19969;SDS011;10146;47.754;9.566;2022-11-23T00:29:56;1.42;;;1.15;;
19969;SDS011;10146;47.754;9.566;2022-11-23T00:32:21;4.43;;;1.20;;
19969;SDS011;10146;47.754;9.566;2022-11-23T00:34:47;2.60;;;1.10;;
19969;SDS011;10146;47.754;9.566;2022-11-23T00:37:12;3.28;;;1.45;;
19969;SDS011;10146;47.754;9.566;2022-11-23T00:39:38;2.83;;;1.10;;
19969;SDS011;10146;47.754;9.566;2022-11-23T00:42:04;1.83;;;1.00;;
19969;SDS011;10146;47.754;9.566;2022-11-23T00:44:29;2.88;;;1.15;;
19969;SDS011;10146;47.754;9.566;2022-11-23T00:46:55;5.57;;;1.55;;
19969;SDS011;10146;47.754;9.566;2022-11-23T00:49:20;2.05;;;1.00;;
19969;SDS011;10146;47.754;9.566;2022-11-23T00:51:46;2.67;;;1.35;;
19969;SDS011;10146;47.754;9.566;2022-11-23T00:54:12;2.70;;;1.35;;
19969;SDS011;10146;47.754;9.566;2022-11-23T00:56:37;1.65;;;1.00;;
19969;SDS011;10146;47.754;9.566;2022-11-23T00:59:03;3.15;;;1.20;;
19969;SDS011;10146;47.754;9.566;2022-11-23T01:01:30;2.15;;;1.08;;
19969;SDS011;10146;47.754;9.566;2022-11-23T01:03:58;2.17;;;1.40;;
19969;SDS011;10146;47.754;9.566;2022-11-23T01:06:28;2.83;;;1.40;;
19969;SDS011;10146;47.754;9.566;2022-11-23T01:08:57;1.75;;;1.00;;
19969;SDS011;10146;47.754;9.566;2022-11-23T01:11:25;2.17;;;1.00;;
19969;SDS011;10146;47.754;9.566;2022-11-23T01:13:52;2.17;;;1.20;;
19969;SDS011;10146;47.754;9.566;2022-11-23T01:16:19;2.78;;;1.33;;
19969;SDS011;10146;47.754;9.566;2022-11-23T01:18:47;2.22;;;1.30;;
19969;SDS011;10146;47.754;9.566;2022-11-23T01:21:16;4.20;;;1.20;;
19969;SDS011;10146;47.754;9.566;2022-11-23T01:23:42;2.90;;;1.20;;
19969;SDS011;10146;47.754;9.566;2022-11-23T01:26:08;5.30;;;1.08;;
19969;SDS011;10146;47.754;9.566;2022-11-23T01:28:35;2.15;;;1.20;;
19969;SDS011;10146;47.754;9.566;2022-11-23T01:31:06;4.38;;;1.65;;
19969;SDS011;10146;47.754;9.566;2022-11-23T01:33:39;2.58;;;1.10;;
19969;SDS011;10146;47.754;9.566;2022-11-23T01:36:09;3.45;;;1.23;;
19969;SDS011;10146;47.754;9.566;2022-11-23T01:38:39;3.38;;;1.27;;
19969;SDS011;10146;47.754;9.566;2022-11-23T01:41:11;3.08;;;1.33;;
19969;SDS011;10146;47.754;9.566;2022-11-23T01:43:38;1.80;;;1.13;;
19969;SDS011;10146;47.754;9.566;2022-11-23T01:46:04;3.15;;;1.30;;
19969;SDS011;10146;47.754;9.566;2022-11-23T01:48:35;3.67;;;1.33;;
19969;SDS011;10146;47.754;9.566;2022-11-23T01:51:10;2.38;;;1.02;;
19969;SDS011;10146;47.754;9.566;2022-11-23T01:53:39;2.58;;;1.20;;
19969;SDS011;10146;47.754;9.566;2022-11-23T01:56:07;3.28;;;1.33;;
19969;SDS011;10146;47.754;9.566;2022-11-23T01:58:38;3.47;;;1.00;;
19969;SDS011;10146;47.754;9.566;2022-11-23T02:01:06;3.67;;;1.17;;
19969;SDS011;10146;47.754;9.566;2022-11-23T02:03:33;3.65;;;1.10;;
19969;SDS011;10146;47.754;9.566;2022-11-23T02:06:01;2.05;;;1.00;;
19969;SDS011;10146;47.754;9.566;2022-11-23T02:08:29;2.55;;;1.10;;
19969;SDS011;10146;47.754;9.566;2022-11-23T02:10:56;5.55;;;1.77;;
19969;SDS011;10146;47.754;9.566;2022-11-23T02:13:23;5.25;;;1.10;;
19969;SDS011;10146;47.754;9.566;2022-11-23T02:15:51;4.35;;;1.20;;
19969;SDS011;10146;47.754;9.566;2022-11-23T02:18:18;5.35;;;1.67;;
19969;SDS011;10146;47.754;9.566;2022-11-23T02:20:47;4.13;;;1.15;;
19969;SDS011;10146;47.754;9.566;2022-11-23T02:26:12;2.15;;;1.15;;
19969;SDS011;10146;47.754;9.566;2022-11-23T02:28:42;1.92;;;1.27;;
19969;SDS011;10146;47.754;9.566;2022-11-23T02:31:10;3.42;;;1.17;;
19969;SDS011;10146;47.754;9.566;2022-11-23T02:33:37;2.67;;;1.20;;
19969;SDS011;10146;47.754;9.566;2022-11-23T02:38:54;3.47;;;1.15;;
19969;SDS011;10146;47.754;9.566;2022-11-23T02:41:20;5.05;;;1.42;;
19969;SDS011;10146;47.754;9.566;2022-11-23T02:43:47;2.97;;;1.23;;
19969;SDS011;10146;47.754;9.566;2022-11-23T02:46:16;3.13;;;1.40;;
19969;SDS011;10146;47.754;9.566;2022-11-23T02:48:42;3.53;;;1.60;;
19969;SDS011;10146;47.754;9.566;2022-11-23T02:51:07;2.53;;;1.55;;
19969;SDS011;10146;47.754;9.566;2022-11-23T02:53:33;2.53;;;1.33;;
19969;SDS011;10146;47.754;9.566;2022-11-23T02:55:58;3.42;;;1.70;;
19969;SDS011;10146;47.754;9.566;2022-11-23T02:58:24;4.75;;;1.50;;
19969;SDS011;10146;47.754;9.566;2022-11-23T03:00:49;4.07;;;1.50;;
19969;SDS011;10146;47.754;9.566;2022-11-23T03:03:15;4.05;;;1.38;;
19969;SDS011;10146;47.754;9.566;2022-11-23T03:05:41;6.28;;;1.77;;
19969;SDS011;10146;47.754;9.566;2022-11-23T03:08:06;2.28;;;1.45;;
19969;SDS011;10146;47.754;9.566;2022-11-23T03:10:32;4.22;;;1.50;;
19969;SDS011;10146;47.754;9.566;2022-11-23T03:12:57;4.13;;;1.60;;
19969;SDS011;10146;47.754;9.566;2022-11-23T03:15:23;4.57;;;1.60;;
19969;SDS011;10146;47.754;9.566;2022-11-23T03:17:49;4.20;;;1.90;;
19969;SDS011;10146;47.754;9.566;2022-11-23T03:20:14;4.00;;;1.80;;
19969;SDS011;10146;47.754;9.566;2022-11-23T03:22:40;2.55;;;1.38;;
19969;SDS011;10146;47.754;9.566;2022-11-23T03:25:06;4.68;;;2.15;;
19969;SDS011;10146;47.754;9.566;2022-11-23T03:27:32;4.80;;;1.67;;
19969;SDS011;10146;47.754;9.566;2022-11-23T03:29:58;3.03;;;1.67;;
19969;SDS011;10146;47.754;9.566;2022-11-23T03:32:24;2.40;;;1.63;;
19969;SDS011;10146;47.754;9.566;2022-11-23T03:34:50;3.83;;;1.77;;
19969;SDS011;10146;47.754;9.566;2022-11-23T03:37:15;4.35;;;1.75;;
19969;SDS011;10146;47.754;9.566;2022-11-23T03:39:41;2.67;;;1.63;;
19969;SDS011;10146;47.754;9.566;2022-11-23T03:42:06;2.72;;;1.73;;
19969;SDS011;10146;47.754;9.566;2022-11-23T03:44:32;2.22;;;1.65;;
19969;SDS011;10146;47.754;9.566;2022-11-23T03:46:57;2.80;;;1.50;;
19969;SDS011;10146;47.754;9.566;2022-11-23T03:49:23;4.28;;;1.80;;
19969;SDS011;10146;47.754;9.566;2022-11-23T03:51:49;3.53;;;1.73;;
19969;SDS011;10146;47.754;9.566;2022-11-23T03:54:14;4.75;;;2.15;;
19969;SDS011;10146;47.754;9.566;2022-11-23T03:56:40;3.88;;;1.60;;
19969;SDS011;10146;47.754;9.566;2022-11-23T03:59:05;4.03;;;1.70;;
19969;SDS011;10146;47.754;9.566;2022-11-23T04:01:31;2.95;;;1.42;;
19969;SDS011;10146;47.754;9.566;2022-11-23T04:03:57;3.00;;;1.60;;
19969;SDS011;10146;47.754;9.566;2022-11-23T04:06:22;5.78;;;1.55;;
19969;SDS011;10146;47.754;9.566;2022-11-23T04:08:48;2.10;;;1.50;;
19969;SDS011;10146;47.754;9.566;2022-11-23T04:11:13;2.25;;;1.27;;
19969;SDS011;10146;47.754;9.566;2022-11-23T04:13:39;2.95;;;1.60;;
19969;SDS011;10146;47.754;9.566;2022-11-23T04:16:05;3.08;;;1.65;;
19969;SDS011;10146;47.754;9.566;2022-11-23T04:18:31;3.92;;;1.25;;
19969;SDS011;10146;47.754;9.566;2022-11-23T04:20:57;3.78;;;1.50;;
19969;SDS011;10146;47.754;9.566;2022-11-23T04:23:22;2.88;;;1.50;;
19969;SDS011;10146;47.754;9.566;2022-11-23T04:25:48;4.53;;;1.85;;
19969;SDS011;10146;47.754;9.566;2022-11-23T04:28:14;2.30;;;1.50;;
19969;SDS011;10146;47.754;9.566;2022-11-23T04:30:39;3.90;;;1.63;;
19969;SDS011;10146;47.754;9.566;2022-11-23T04:33:05;2.60;;;1.45;;
19969;SDS011;10146;47.754;9.566;2022-11-23T04:35:30;3.80;;;1.38;;
19969;SDS011;10146;47.754;9.566;2022-11-23T04:37:58;2.63;;;1.70;;
19969;SDS011;10146;47.754;9.566;2022-11-23T04:40:23;3.85;;;1.67;;
19969;SDS011;10146;47.754;9.566;2022-11-23T04:42:49;2.05;;;1.67;;
19969;SDS011;10146;47.754;9.566;2022-11-23T04:45:14;3.22;;;1.88;;
19969;SDS011;10146;47.754;9.566;2022-11-23T04:47:40;4.10;;;1.83;;
19969;SDS011;10146;47.754;9.566;2022-11-23T04:50:06;2.78;;;1.83;;
19969;SDS011;10146;47.754;9.566;2022-11-23T04:52:31;4.60;;;1.98;;
19969;SDS011;10146;47.754;9.566;2022-11-23T04:54:57;4.18;;;1.85;;
19969;SDS011;10146;47.754;9.566;2022-11-23T04:57:23;2.55;;;1.70;;
19969;SDS011;10146;47.754;9.566;2022-11-23T04:59:48;4.13;;;2.40;;
19969;SDS011;10146;47.754;9.566;2022-11-23T05:02:14;3.67;;;1.90;;
19969;SDS011;10146;47.754;9.566;2022-11-23T05:04:40;2.80;;;1.60;;
19969;SDS011;10146;47.754;9.566;2022-11-23T05:07:05;2.90;;;1.88;;
19969;SDS011;10146;47.754;9.566;2022-11-23T05:09:31;3.53;;;2.20;;
19969;SDS011;10146;47.754;9.566;2022-11-23T05:11:56;5.97;;;2.25;;
19969;SDS011;10146;47.754;9.566;2022-11-23T05:14:23;3.80;;;2.10;;
19969;SDS011;10146;47.754;9.566;2022-11-23T05:16:48;2.88;;;1.80;;
19969;SDS011;10146;47.754;9.566;2022-11-23T05:19:14;4.00;;;2.55;;
19969;SDS011;10146;47.754;9.566;2022-11-23T05:21:39;3.22;;;1.95;;
19969;SDS011;10146;47.754;9.566;2022-11-23T05:24:05;2.47;;;1.65;;
19969;SDS011;10146;47.754;9.566;2022-11-23T05:26:31;4.32;;;2.47;;
19969;SDS011;10146;47.754;9.566;2022-11-23T05:28:56;2.67;;;2.00;;
19969;SDS011;10146;47.754;9.566;2022-11-23T05:31:22;3.45;;;2.55;;
19969;SDS011;10146;47.754;9.566;2022-11-23T05:33:47;4.95;;;2.40;;
19969;SDS011;10146;47.754;9.566;2022-11-23T05:36:13;4.18;;;2.28;;
19969;SDS011;10146;47.754;9.566;2022-11-23T05:38:39;4.03;;;2.40;;
19969;SDS011;10146;47.754;9.566;2022-11-23T05:41:05;7.38;;;2.33;;
19969;SDS011;10146;47.754;9.566;2022-11-23T05:43:31;6.55;;;2.67;;
19969;SDS011;10146;47.754;9.566;2022-11-23T05:45:57;4.25;;;2.92;;
19969;SDS011;10146;47.754;9.566;2022-11-23T05:48:24;5.25;;;3.45;;
19969;SDS011;10146;47.754;9.566;2022-11-23T05:50:50;5.05;;;3.65;;
19969;SDS011;10146;47.754;9.566;2022-11-23T05:53:15;5.22;;;3.40;;
19969;SDS011;10146;47.754;9.566;2022-11-23T05:55:41;6.25;;;3.95;;
19969;SDS011;10146;47.754;9.566;2022-11-23T05:58:07;4.95;;;4.07;;
19969;SDS011;10146;47.754;9.566;2022-11-23T06:00:32;7.40;;;4.43;;
19969;SDS011;10146;47.754;9.566;2022-11-23T06:03:01;5.80;;;4.40;;
19969;SDS011;10146;47.754;9.566;2022-11-23T06:05:27;6.25;;;4.30;;
19969;SDS011;10146;47.754;9.566;2022-11-23T06:07:53;9.35;;;4.60;;
19969;SDS011;10146;47.754;9.566;2022-11-23T06:10:19;7.88;;;4.70;;
19969;SDS011;10146;47.754;9.566;2022-11-23T06:12:44;8.35;;;4.22;;
19969;SDS011;10146;47.754;9.566;2022-11-23T06:15:10;9.07;;;4.78;;
19969;SDS011;10146;47.754;9.566;2022-11-23T06:17:36;5.93;;;4.50;;
19969;SDS011;10146;47.754;9.566;2022-11-23T06:20:03;5.03;;;4.20;;
19969;SDS011;10146;47.754;9.566;2022-11-23T06:22:29;6.78;;;4.32;;
19969;SDS011;10146;47.754;9.566;2022-11-23T06:24:55;6.30;;;4.70;;
19969;SDS011;10146;47.754;9.566;2022-11-23T06:27:20;6.80;;;4.32;;
19969;SDS011;10146;47.754;9.566;2022-11-23T06:29:46;5.63;;;3.20;;
19969;SDS011;10146;47.754;9.566;2022-11-23T06:32:11;5.13;;;3.85;;
19969;SDS011;10146;47.754;9.566;2022-11-23T06:34:37;4.72;;;3.10;;
19969;SDS011;10146;47.754;9.566;2022-11-23T06:37:03;5.15;;;3.47;;
19969;SDS011;10146;47.754;9.566;2022-11-23T06:39:28;6.60;;;4.13;;
19969;SDS011;10146;47.754;9.566;2022-11-23T06:41:54;4.53;;;3.58;;
19969;SDS011;10146;47.754;9.566;2022-11-23T06:44:20;5.40;;;3.35;;
19969;SDS011;10146;47.754;9.566;2022-11-23T06:46:45;4.30;;;3.47;;
19969;SDS011;10146;47.754;9.566;2022-11-23T06:49:11;3.83;;;3.33;;
19969;SDS011;10146;47.754;9.566;2022-11-23T06:51:36;5.10;;;3.75;;
19969;SDS011;10146;47.754;9.566;2022-11-23T06:54:02;6.05;;;4.13;;
19969;SDS011;10146;47.754;9.566;2022-11-23T06:56:29;4.32;;;3.30;;
19969;SDS011;10146;47.754;9.566;2022-11-23T06:58:55;6.65;;;3.85;;
19969;SDS011;10146;47.754;9.566;2022-11-23T07:01:21;4.80;;;3.65;;
19969;SDS011;10146;47.754;9.566;2022-11-23T07:03:47;3.95;;;3.42;;
19969;SDS011;10146;47.754;9.566;2022-11-23T07:06:12;4.32;;;3.65;;
19969;SDS011;10146;47.754;9.566;2022-11-23T07:08:38;3.85;;;3.33;;
19969;SDS011;10146;47.754;9.566;2022-11-23T07:11:08;4.07;;;3.55;;
19969;SDS011;10146;47.754;9.566;2022-11-23T07:13:35;5.75;;;3.70;;
19969;SDS011;10146;47.754;9.566;2022-11-23T07:16:01;5.13;;;4.13;;
19969;SDS011;10146;47.754;9.566;2022-11-23T07:18:27;6.63;;;4.00;;
19969;SDS011;10146;47.754;9.566;2022-11-23T07:20:52;7.28;;;4.18;;
19969;SDS011;10146;47.754;9.566;2022-11-23T07:23:20;4.95;;;3.33;;
19969;SDS011;10146;47.754;9.566;2022-11-23T07:25:46;5.13;;;3.47;;
19969;SDS011;10146;47.754;9.566;2022-11-23T07:28:12;4.55;;;3.38;;
19969;SDS011;10146;47.754;9.566;2022-11-23T07:30:38;4.75;;;3.65;;
19969;SDS011;10146;47.754;9.566;2022-11-23T07:33:07;5.20;;;3.38;;
19969;SDS011;10146;47.754;9.566;2022-11-23T07:35:35;4.85;;;3.33;;
19969;SDS011;10146;47.754;9.566;2022-11-23T07:38:01;5.28;;;3.45;;
19969;SDS011;10146;47.754;9.566;2022-11-23T07:40:27;4.75;;;3.67;;
19969;SDS011;10146;47.754;9.566;2022-11-23T07:42:57;3.45;;;3.13;;
19969;SDS011;10146;47.754;9.566;2022-11-23T07:45:24;3.72;;;2.95;;
19969;SDS011;10146;47.754;9.566;2022-11-23T07:47:56;3.78;;;3.30;;
19969;SDS011;10146;47.754;9.566;2022-11-23T07:50:25;5.35;;;3.42;;
19969;SDS011;10146;47.754;9.566;2022-11-23T07:52:51;4.95;;;3.42;;
19969;SDS011;10146;47.754;9.566;2022-11-23T07:55:17;7.35;;;3.20;;
19969;SDS011;10146;47.754;9.566;2022-11-23T07:57:42;4.72;;;3.30;;
19969;SDS011;10146;47.754;9.566;2022-11-23T08:00:08;3.75;;;2.75;;
19969;SDS011;10146;47.754;9.566;2022-11-23T08:02:34;6.35;;;3.35;;
19969;SDS011;10146;47.754;9.566;2022-11-23T08:05:00;4.15;;;2.90;;
19969;SDS011;10146;47.754;9.566;2022-11-23T08:07:26;4.18;;;3.15;;
19969;SDS011;10146;47.754;9.566;2022-11-23T08:09:51;4.72;;;2.85;;
19969;SDS011;10146;47.754;9.566;2022-11-23T08:12:17;4.90;;;3.08;;
19969;SDS011;10146;47.754;9.566;2022-11-23T08:14:42;3.67;;;2.75;;
19969;SDS011;10146;47.754;9.566;2022-11-23T08:17:08;5.93;;;3.25;;
19969;SDS011;10146;47.754;9.566;2022-11-23T08:19:34;5.05;;;2.90;;
19969;SDS011;10146;47.754;9.566;2022-11-23T08:22:00;4.90;;;3.00;;
19969;SDS011;10146;47.754;9.566;2022-11-23T08:24:25;4.18;;;2.97;;
19969;SDS011;10146;47.754;9.566;2022-11-23T08:26:51;4.50;;;2.83;;
19969;SDS011;10146;47.754;9.566;2022-11-23T08:29:16;4.63;;;2.67;;
19969;SDS011;10146;47.754;9.566;2022-11-23T08:31:42;3.83;;;2.58;;
19969;SDS011;10146;47.754;9.566;2022-11-23T08:34:08;3.10;;;2.60;;
19969;SDS011;10146;47.754;9.566;2022-11-23T08:36:33;4.97;;;2.60;;
19969;SDS011;10146;47.754;9.566;2022-11-23T08:38:59;3.22;;;2.50;;
19969;SDS011;10146;47.754;9.566;2022-11-23T08:41:25;4.72;;;2.72;;
19969;SDS011;10146;47.754;9.566;2022-11-23T08:43:57;3.97;;;2.67;;
19969;SDS011;10146;47.754;9.566;2022-11-23T08:46:22;3.45;;;2.42;;
19969;SDS011;10146;47.754;9.566;2022-11-23T08:48:51;2.97;;;2.55;;
19969;SDS011;10146;47.754;9.566;2022-11-23T08:51:32;3.28;;;2.13;;
19969;SDS011;10146;47.754;9.566;2022-11-23T08:54:07;3.25;;;2.60;;
19969;SDS011;10146;47.754;9.566;2022-11-23T08:56:33;3.47;;;2.00;;
19969;SDS011;10146;47.754;9.566;2022-11-23T08:58:58;3.13;;;2.20;;
19969;SDS011;10146;47.754;9.566;2022-11-23T09:01:24;2.97;;;2.20;;
19969;SDS011;10146;47.754;9.566;2022-11-23T09:03:50;2.90;;;2.30;;
19969;SDS011;10146;47.754;9.566;2022-11-23T09:06:15;2.78;;;2.50;;
19969;SDS011;10146;47.754;9.566;2022-11-23T09:08:41;3.80;;;2.30;;
19969;SDS011;10146;47.754;9.566;2022-11-23T09:11:08;3.47;;;2.38;;
19969;SDS011;10146;47.754;9.566;2022-11-23T09:13:36;3.08;;;2.40;;
19969;SDS011;10146;47.754;9.566;2022-11-23T09:16:02;4.35;;;2.50;;
19969;SDS011;10146;47.754;9.566;2022-11-23T09:18:29;4.05;;;1.95;;
19969;SDS011;10146;47.754;9.566;2022-11-23T09:20:57;3.50;;;1.88;;
19969;SDS011;10146;47.754;9.566;2022-11-23T09:23:27;3.22;;;2.20;;
19969;SDS011;10146;47.754;9.566;2022-11-23T09:25:52;3.83;;;2.30;;
19969;SDS011;10146;47.754;9.566;2022-11-23T09:28:18;2.30;;;1.90;;
19969;SDS011;10146;47.754;9.566;2022-11-23T09:30:44;2.10;;;1.90;;
19969;SDS011;10146;47.754;9.566;2022-11-23T09:33:11;3.58;;;1.90;;
19969;SDS011;10146;47.754;9.566;2022-11-23T09:35:37;2.45;;;1.40;;
19969;SDS011;10146;47.754;9.566;2022-11-23T09:38:03;3.63;;;1.48;;
19969;SDS011;10146;47.754;9.566;2022-11-23T09:40:30;2.33;;;1.33;;
19969;SDS011;10146;47.754;9.566;2022-11-23T09:43:09;2.28;;;1.40;;
19969;SDS011;10146;47.754;9.566;2022-11-23T09:45:55;4.80;;;1.73;;
19969;SDS011;10146;47.754;9.566;2022-11-23T09:50:58;1.40;;;1.30;;
19969;SDS011;10146;47.754;9.566;2022-11-23T09:53:32;2.78;;;1.40;;
19969;SDS011;10146;47.754;9.566;2022-11-23T09:56:03;2.22;;;1.30;;
19969;SDS011;10146;47.754;9.566;2022-11-23T09:58:31;1.23;;;1.13;;
19969;SDS011;10146;47.754;9.566;2022-11-23T10:01:04;2.13;;;1.10;;
19969;SDS011;10146;47.754;9.566;2022-11-23T10:03:41;1.98;;;1.00;;
19969;SDS011;10146;47.754;9.566;2022-11-23T10:16:23;1.90;;;0.90;;
19969;SDS011;10146;47.754;9.566;2022-11-23T10:21:32;1.35;;;0.90;;
19969;SDS011;10146;47.754;9.566;2022-11-23T10:24:28;2.90;;;1.08;;
19969;SDS011;10146;47.754;9.566;2022-11-23T10:26:58;3.35;;;1.17;;
19969;SDS011;10146;47.754;9.566;2022-11-23T10:29:28;1.55;;;1.00;;
19969;SDS011;10146;47.754;9.566;2022-11-23T10:31:56;1.55;;;0.90;;
19969;SDS011;10146;47.754;9.566;2022-11-23T10:37:20;1.42;;;0.80;;
19969;SDS011;10146;47.754;9.566;2022-11-23T10:39:46;2.17;;;1.00;;
19969;SDS011;10146;47.754;9.566;2022-11-23T10:42:13;1.63;;;0.80;;
19969;SDS011;10146;47.754;9.566;2022-11-23T10:44:49;1.65;;;0.88;;
19969;SDS011;10146;47.754;9.566;2022-11-23T10:47:36;1.00;;;0.80;;
19969;SDS011;10146;47.754;9.566;2022-11-23T10:52:56;2.67;;;0.90;;
19969;SDS011;10146;47.754;9.566;2022-11-23T10:55:28;2.08;;;0.73;;
19969;SDS011;10146;47.754;9.566;2022-11-23T10:57:55;1.48;;;0.70;;
19969;SDS011;10146;47.754;9.566;2022-11-23T11:00:22;0.80;;;0.80;;
19969;SDS011;10146;47.754;9.566;2022-11-23T11:02:50;3.60;;;0.93;;
19969;SDS011;10146;47.754;9.566;2022-11-23T11:05:31;1.15;;;0.77;;
19969;SDS011;10146;47.754;9.566;2022-11-23T11:08:03;2.38;;;0.93;;
19969;SDS011;10146;47.754;9.566;2022-11-23T11:10:56;1.85;;;1.05;;
19969;SDS011;10146;47.754;9.566;2022-11-23T11:13:23;1.65;;;0.73;;
19969;SDS011;10146;47.754;9.566;2022-11-23T11:15:55;1.55;;;0.70;;
19969;SDS011;10146;47.754;9.566;2022-11-23T11:18:40;1.88;;;0.60;;
19969;SDS011;10146;47.754;9.566;2022-11-23T11:21:09;2.28;;;0.93;;
19969;SDS011;10146;47.754;9.566;2022-11-23T11:23:41;1.40;;;0.82;;
19969;SDS011;10146;47.754;9.566;2022-11-23T11:28:50;1.55;;;0.60;;
19969;SDS011;10146;47.754;9.566;2022-11-23T11:36:40;1.52;;;0.88;;
19969;SDS011;10146;47.754;9.566;2022-11-23T11:39:15;1.75;;;0.80;;
19969;SDS011;10146;47.754;9.566;2022-11-23T11:41:46;1.15;;;0.73;;
19969;SDS011;10146;47.754;9.566;2022-11-23T11:44:21;3.30;;;0.77;;
19969;SDS011;10146;47.754;9.566;2022-11-23T11:46:59;1.33;;;0.88;;
19969;SDS011;10146;47.754;9.566;2022-11-23T11:49:32;1.80;;;0.90;;
19969;SDS011;10146;47.754;9.566;2022-11-23T11:52:06;1.02;;;0.60;;
19969;SDS011;10146;47.754;9.566;2022-11-23T11:57:18;1.15;;;0.70;;
19969;SDS011;10146;47.754;9.566;2022-11-23T11:59:47;0.95;;;0.63;;
19969;SDS011;10146;47.754;9.566;2022-11-23T12:02:26;1.20;;;0.60;;
19969;SDS011;10146;47.754;9.566;2022-11-23T12:05:10;2.92;;;0.65;;
19969;SDS011;10146;47.754;9.566;2022-11-23T12:10:12;1.67;;;0.55;;
19969;SDS011;10146;47.754;9.566;2022-11-23T12:12:42;0.73;;;0.70;;
19969;SDS011;10146;47.754;9.566;2022-11-23T12:15:15;1.83;;;0.75;;
19969;SDS011;10146;47.754;9.566;2022-11-23T12:20:32;0.60;;;0.50;;
19969;SDS011;10146;47.754;9.566;2022-11-23T12:26:05;2.15;;;0.80;;
19969;SDS011;10146;47.754;9.566;2022-11-23T12:28:52;1.33;;;0.80;;
19969;SDS011;10146;47.754;9.566;2022-11-23T12:37:12;1.40;;;0.77;;
19969;SDS011;10146;47.754;9.566;2022-11-23T12:42:50;1.45;;;1.00;;
19969;SDS011;10146;47.754;9.566;2022-11-23T12:56:59;4.32;;;0.73;;
19969;SDS011;10146;47.754;9.566;2022-11-23T13:02:19;1.38;;;0.52;;
19969;SDS011;10146;47.754;9.566;2022-11-23T13:13:44;1.85;;;0.70;;
19969;SDS011;10146;47.754;9.566;2022-11-23T13:16:45;2.10;;;0.57;;
19969;SDS011;10146;47.754;9.566;2022-11-23T13:22:15;2.72;;;0.70;;
19969;SDS011;10146;47.754;9.566;2022-11-23T13:25:26;1.35;;;0.57;;
19969;SDS011;10146;47.754;9.566;2022-11-23T13:27:43;0.65;;;0.50;;
19969;SDS011;10146;47.754;9.566;2022-11-23T13:32:54;1.25;;;0.77;;
19969;SDS011;10146;47.754;9.566;2022-11-23T13:40:20;1.48;;;1.15;;
19969;SDS011;10146;47.754;9.566;2022-11-23T13:42:46;0.77;;;0.77;;
19969;SDS011;10146;47.754;9.566;2022-11-23T13:50:28;1.70;;;0.77;;
19969;SDS011;10146;47.754;9.566;2022-11-23T13:52:54;1.30;;;0.60;;
19969;SDS011;10146;47.754;9.566;2022-11-23T13:55:21;2.00;;;0.55;;
19969;SDS011;10146;47.754;9.566;2022-11-23T14:00:50;1.58;;;0.75;;
19969;SDS011;10146;47.754;9.566;2022-11-23T14:08:56;1.58;;;0.93;;
19969;SDS011;10146;47.754;9.566;2022-11-23T14:11:47;1.35;;;0.80;;
19969;SDS011;10146;47.754;9.566;2022-11-23T14:14:17;1.92;;;0.80;;
19969;SDS011;10146;47.754;9.566;2022-11-23T14:19:27;2.58;;;1.10;;
19969;SDS011;10146;47.754;9.566;2022-11-23T14:22:21;1.40;;;0.60;;
19969;SDS011;10146;47.754;9.566;2022-11-23T14:25:11;1.83;;;0.60;;
19969;SDS011;10146;47.754;9.566;2022-11-23T14:30:48;0.85;;;0.45;;
19969;SDS011;10146;47.754;9.566;2022-11-23T14:33:28;2.88;;;0.70;;
19969;SDS011;10146;47.754;9.566;2022-11-23T14:36:19;1.17;;;0.63;;
19969;SDS011;10146;47.754;9.566;2022-11-23T14:39:08;1.30;;;0.50;;
19969;SDS011;10146;47.754;9.566;2022-11-23T14:41:40;1.58;;;0.60;;
19969;SDS011;10146;47.754;9.566;2022-11-23T14:44:10;3.72;;;1.10;;
19969;SDS011;10146;47.754;9.566;2022-11-23T14:46:57;0.55;;;0.55;;
19969;SDS011;10146;47.754;9.566;2022-11-23T14:49:28;1.50;;;0.60;;
19969;SDS011;10146;47.754;9.566;2022-11-23T14:51:54;1.30;;;0.60;;
19969;SDS011;10146;47.754;9.566;2022-11-23T14:54:20;1.17;;;0.60;;
19969;SDS011;10146;47.754;9.566;2022-11-23T14:56:46;1.25;;;0.70;;
19969;SDS011;10146;47.754;9.566;2022-11-23T14:59:27;1.33;;;0.63;;
19969;SDS011;10146;47.754;9.566;2022-11-23T15:01:57;0.75;;;0.60;;
19969;SDS011;10146;47.754;9.566;2022-11-23T15:04:30;1.27;;;0.80;;
19969;SDS011;10146;47.754;9.566;2022-11-23T15:07:03;2.08;;;0.60;;
19969;SDS011;10146;47.754;9.566;2022-11-23T15:12:19;1.23;;;0.57;;
19969;SDS011;10146;47.754;9.566;2022-11-23T15:15:19;1.80;;;0.90;;
19969;SDS011;10146;47.754;9.566;2022-11-23T15:20:31;1.98;;;0.70;;
19969;SDS011;10146;47.754;9.566;2022-11-23T15:23:00;0.73;;;0.50;;
19969;SDS011;10146;47.754;9.566;2022-11-23T15:25:26;1.33;;;0.88;;
19969;SDS011;10146;47.754;9.566;2022-11-23T15:27:52;2.58;;;0.90;;
19969;SDS011;10146;47.754;9.566;2022-11-23T15:30:25;1.42;;;0.65;;
19969;SDS011;10146;47.754;9.566;2022-11-23T15:32:56;1.05;;;0.50;;
19969;SDS011;10146;47.754;9.566;2022-11-23T15:35:27;2.20;;;0.50;;
19969;SDS011;10146;47.754;9.566;2022-11-23T15:37:58;1.08;;;0.50;;
19969;SDS011;10146;47.754;9.566;2022-11-23T15:40:26;1.65;;;0.50;;
19969;SDS011;10146;47.754;9.566;2022-11-23T15:42:55;0.77;;;0.60;;
19969;SDS011;10146;47.754;9.566;2022-11-23T15:45:37;2.03;;;0.57;;
19969;SDS011;10146;47.754;9.566;2022-11-23T15:48:21;2.25;;;0.57;;
19969;SDS011;10146;47.754;9.566;2022-11-23T15:50:52;1.48;;;0.50;;
19969;SDS011;10146;47.754;9.566;2022-11-23T15:53:20;1.33;;;0.70;;
19969;SDS011;10146;47.754;9.566;2022-11-23T15:55:50;1.15;;;0.63;;
19969;SDS011;10146;47.754;9.566;2022-11-23T15:58:17;2.42;;;0.70;;
19969;SDS011;10146;47.754;9.566;2022-11-23T16:01:17;2.30;;;0.70;;
19969;SDS011;10146;47.754;9.566;2022-11-23T16:08:37;1.80;;;0.85;;
19969;SDS011;10146;47.754;9.566;2022-11-23T16:11:04;0.73;;;0.63;;
19969;SDS011;10146;47.754;9.566;2022-11-23T16:13:44;1.77;;;0.93;;
19969;SDS011;10146;47.754;9.566;2022-11-23T16:16:28;1.23;;;0.88;;
19969;SDS011;10146;47.754;9.566;2022-11-23T16:18:53;1.20;;;0.75;;
19969;SDS011;10146;47.754;9.566;2022-11-23T16:21:22;1.35;;;0.85;;
19969;SDS011;10146;47.754;9.566;2022-11-23T16:23:50;1.77;;;0.90;;
19969;SDS011;10146;47.754;9.566;2022-11-23T16:26:29;1.90;;;1.00;;
19969;SDS011;10146;47.754;9.566;2022-11-23T16:28:56;1.30;;;0.90;;
19969;SDS011;10146;47.754;9.566;2022-11-23T16:31:26;1.42;;;1.00;;
19969;SDS011;10146;47.754;9.566;2022-11-23T16:33:54;2.63;;;0.90;;
19969;SDS011;10146;47.754;9.566;2022-11-23T16:36:20;2.95;;;0.80;;
19969;SDS011;10146;47.754;9.566;2022-11-23T16:38:46;1.85;;;0.80;;
19969;SDS011;10146;47.754;9.566;2022-11-23T16:41:11;2.22;;;0.80;;
19969;SDS011;10146;47.754;9.566;2022-11-23T16:43:37;2.55;;;1.10;;
19969;SDS011;10146;47.754;9.566;2022-11-23T16:46:03;2.53;;;1.15;;
19969;SDS011;10146;47.754;9.566;2022-11-23T16:48:36;1.70;;;0.98;;
19969;SDS011;10146;47.754;9.566;2022-11-23T16:51:04;3.15;;;1.02;;
19969;SDS011;10146;47.754;9.566;2022-11-23T16:53:30;2.20;;;1.23;;
19969;SDS011;10146;47.754;9.566;2022-11-23T16:55:57;1.70;;;1.00;;